createdAt,value
2023-04-18T00:00:27.039Z,9.86
2023-04-18T00:02:53.916Z,9.89
2023-04-18T00:05:21.520Z,9.88
2023-04-18T00:07:48.241Z,9.90
2023-04-18T00:10:15.074Z,9.94
2023-04-18T00:12:41.516Z,9.93
2023-04-18T00:15:08.918Z,9.89
2023-04-18T00:17:38.397Z,9.72
2023-04-18T00:20:12.637Z,9.63
2023-04-18T00:22:43.019Z,9.54
2023-04-18T00:25:10.979Z,9.56
2023-04-18T00:27:41.404Z,9.43
2023-04-18T00:30:08.806Z,9.39
2023-04-18T00:32:37.630Z,9.35
2023-04-18T00:35:04.822Z,9.34
2023-04-18T00:37:31.210Z,9.35
2023-04-18T00:39:57.628Z,9.34
2023-04-18T00:42:25.909Z,9.33
2023-04-18T00:44:52.335Z,9.30
2023-04-18T00:47:18.734Z,9.34
2023-04-18T00:49:45.856Z,9.27
2023-04-18T00:52:12.941Z,9.20
2023-04-18T00:54:41.453Z,9.16
2023-04-18T00:57:08.037Z,9.08
2023-04-18T00:59:35.477Z,9.03
2023-04-18T01:02:03.834Z,9.00
2023-04-18T01:04:32.579Z,9.04
2023-04-18T01:07:00.904Z,9.04
2023-04-18T01:09:29.111Z,9.06
2023-04-18T01:11:55.559Z,9.04
2023-04-18T01:14:22.241Z,9.02
2023-04-18T01:16:48.754Z,9.02
2023-04-18T01:19:17.363Z,8.95
2023-04-18T01:21:43.908Z,8.83
2023-04-18T01:24:17.564Z,8.86
2023-04-18T01:26:47.455Z,8.87
2023-04-18T01:29:14.315Z,8.91
2023-04-18T01:31:41.371Z,8.86
2023-04-18T01:34:08.334Z,8.87
2023-04-18T01:36:36.685Z,8.85
2023-04-18T01:39:03.297Z,8.80
2023-04-18T01:41:32.402Z,8.79
2023-04-18T01:43:59.599Z,8.83
2023-04-18T01:46:26.397Z,8.86
2023-04-18T01:48:53.566Z,8.87
2023-04-18T01:51:20.894Z,8.84
2023-04-18T01:53:47.347Z,8.74
2023-04-18T01:56:13.917Z,8.74
2023-04-18T01:58:41.586Z,8.79
2023-04-18T02:01:08.350Z,8.82
2023-04-18T02:03:35.195Z,8.80
2023-04-18T02:06:04.011Z,8.75
2023-04-18T02:08:32.878Z,8.75
2023-04-18T02:11:01.007Z,8.72
2023-04-18T02:13:27.827Z,8.72
2023-04-18T02:15:54.246Z,8.64
2023-04-18T02:18:21.960Z,8.63
2023-04-18T02:20:48.780Z,8.60
2023-04-18T02:23:15.218Z,8.55
2023-04-18T02:25:41.604Z,8.50
2023-04-18T02:28:09.350Z,8.50
2023-04-18T02:30:35.951Z,8.48
2023-04-18T02:33:02.621Z,8.49
2023-04-18T02:35:29.135Z,8.49
2023-04-18T02:37:55.650Z,8.47
2023-04-18T02:40:22.153Z,8.50
2023-04-18T02:42:48.579Z,8.54
2023-04-18T02:45:15.089Z,8.58
2023-04-18T02:47:51.792Z,8.55
2023-04-18T02:50:20.697Z,8.53
2023-04-18T02:52:47.219Z,8.45
2023-04-18T02:55:14.682Z,8.41
2023-04-18T02:57:43.575Z,8.51
2023-04-18T03:00:38.864Z,8.56
2023-04-18T03:03:23.780Z,8.57
2023-04-18T03:05:58.172Z,8.52
2023-04-18T03:08:24.914Z,8.37
2023-04-18T03:10:51.613Z,8.38
2023-04-18T03:13:21.737Z,8.35
2023-04-18T03:15:48.498Z,8.31
2023-04-18T03:18:15.392Z,8.24
2023-04-18T03:20:43.225Z,8.23
2023-04-18T03:23:10.200Z,8.26
2023-04-18T03:25:37.178Z,8.28
2023-04-18T03:28:05.110Z,8.24
2023-04-18T03:30:33.118Z,8.22
2023-04-18T03:33:02.648Z,8.17
2023-04-18T03:35:29.344Z,8.14
2023-04-18T03:37:56.379Z,8.05
2023-04-18T03:40:30.184Z,8.00
2023-04-18T03:43:02.185Z,7.93
2023-04-18T03:45:28.933Z,7.97
2023-04-18T03:47:56.098Z,7.98
2023-04-18T03:50:25.542Z,7.88
2023-04-18T03:52:54.417Z,7.81
2023-04-18T03:55:20.934Z,7.82
2023-04-18T03:57:47.574Z,7.82
2023-04-18T04:00:21.195Z,7.80
2023-04-18T04:02:58.040Z,7.86
2023-04-18T04:05:24.530Z,7.90
2023-04-18T04:07:51.231Z,7.86
2023-04-18T04:10:18.140Z,7.84
2023-04-18T04:12:44.817Z,7.72
2023-04-18T04:15:11.733Z,7.74
2023-04-18T04:17:43.922Z,7.73
2023-04-18T04:20:11.908Z,7.67
2023-04-18T04:22:38.786Z,7.68
2023-04-18T04:25:05.455Z,7.61
2023-04-18T04:27:38.961Z,7.55
2023-04-18T04:30:12.029Z,7.54
2023-04-18T04:32:39.919Z,7.47
2023-04-18T04:35:08.348Z,7.36
2023-04-18T04:37:35.894Z,7.39
2023-04-18T04:40:19.981Z,7.37
2023-04-18T04:42:54.210Z,7.32
2023-04-18T04:45:29.971Z,7.31
2023-04-18T04:47:56.497Z,7.32
2023-04-18T04:50:23.421Z,7.40
2023-04-18T04:52:49.905Z,7.44
2023-04-18T04:55:17.404Z,7.44
2023-04-18T04:57:44.791Z,7.49
2023-04-18T05:00:33.897Z,7.47
2023-04-18T05:03:00.565Z,7.38
2023-04-18T05:05:27.880Z,7.32
2023-04-18T05:07:54.705Z,7.31
2023-04-18T05:10:21.632Z,7.36
2023-04-18T05:12:48.063Z,7.36
2023-04-18T05:15:16.092Z,7.27
2023-04-18T05:17:42.656Z,7.24
2023-04-18T05:20:10.052Z,7.24
2023-04-18T05:22:36.660Z,7.24
2023-04-18T05:25:03.266Z,7.31
2023-04-18T05:27:29.677Z,7.24
2023-04-18T05:29:56.084Z,7.24
2023-04-18T05:32:22.581Z,7.18
2023-04-18T05:34:49.106Z,7.20
2023-04-18T05:37:15.540Z,7.21
2023-04-18T05:39:41.939Z,7.23
2023-04-18T05:42:08.599Z,7.23
2023-04-18T05:44:35.483Z,7.32
2023-04-18T05:47:01.940Z,7.27
2023-04-18T05:49:28.333Z,7.19
2023-04-18T05:51:56.396Z,7.22
2023-04-18T05:54:24.997Z,7.25
2023-04-18T05:56:51.716Z,7.26
2023-04-18T05:59:18.187Z,7.38
2023-04-18T06:01:44.646Z,7.43
2023-04-18T06:04:11.218Z,7.48
2023-04-18T06:06:38.128Z,7.47
2023-04-18T06:09:04.578Z,7.49
2023-04-18T06:11:33.497Z,7.50
2023-04-18T06:14:00.142Z,7.50
2023-04-18T06:16:26.874Z,7.51
2023-04-18T06:18:53.372Z,7.49
2023-04-18T06:21:21.182Z,7.49
2023-04-18T06:23:48.009Z,7.46
2023-04-18T06:26:14.462Z,7.46
2023-04-18T06:28:40.909Z,7.53
2023-04-18T06:31:08.459Z,7.58
2023-04-18T06:33:36.429Z,7.57
2023-04-18T06:36:03.002Z,7.55
2023-04-18T06:38:29.419Z,7.51
2023-04-18T06:40:55.860Z,7.50
2023-04-18T06:43:22.245Z,7.55
2023-04-18T06:45:50.282Z,7.58
2023-04-18T06:48:16.794Z,7.52
2023-04-18T06:50:43.784Z,7.49
2023-04-18T06:53:10.232Z,7.53
2023-04-18T06:55:36.712Z,7.56
2023-04-18T06:58:03.192Z,7.61
2023-04-18T07:00:29.651Z,7.65
2023-04-18T07:02:56.287Z,7.67
2023-04-18T07:05:22.806Z,7.72
2023-04-18T07:07:49.279Z,7.68
2023-04-18T07:10:15.748Z,7.74
2023-04-18T07:12:42.119Z,7.80
2023-04-18T07:15:09.152Z,7.92
2023-04-18T07:17:35.584Z,8.07
2023-04-18T07:20:02.053Z,8.08
2023-04-18T07:22:28.428Z,8.13
2023-04-18T07:24:54.843Z,8.13
2023-04-18T07:27:21.212Z,8.09
2023-04-18T07:29:47.633Z,8.15
2023-04-18T07:32:14.061Z,8.17
2023-04-18T07:34:40.516Z,8.15
2023-04-18T07:37:07.071Z,8.19
2023-04-18T07:39:35.884Z,8.14
2023-04-18T07:42:04.105Z,8.13
2023-04-18T07:44:30.833Z,8.13
2023-04-18T07:46:57.400Z,8.23
2023-04-18T07:49:23.868Z,8.24
2023-04-18T07:51:50.321Z,8.35
2023-04-18T07:54:16.788Z,8.41
2023-04-18T07:56:43.262Z,8.49
2023-04-18T07:59:09.622Z,8.73
2023-04-18T08:01:36.047Z,8.98
2023-04-18T08:04:02.734Z,9.28
2023-04-18T08:06:29.394Z,9.42
2023-04-18T08:08:55.867Z,9.47
2023-04-18T08:11:22.271Z,9.40
2023-04-18T08:13:48.643Z,9.37
2023-04-18T08:16:17.286Z,9.60
2023-04-18T08:18:44.081Z,9.52
2023-04-18T08:21:10.658Z,9.50
2023-04-18T08:23:37.073Z,9.69
2023-04-18T08:26:03.468Z,9.78
2023-04-18T08:28:29.854Z,9.76
2023-04-18T08:30:56.603Z,9.78
2023-04-18T08:33:24.249Z,9.85
2023-04-18T08:35:51.416Z,9.92
2023-04-18T08:38:18.462Z,10.03
2023-04-18T08:40:45.926Z,10.22
2023-04-18T08:43:14.819Z,10.55
2023-04-18T08:45:45.156Z,10.57
2023-04-18T08:48:13.738Z,10.44
2023-04-18T08:50:41.308Z,10.44
2023-04-18T08:53:08.282Z,10.35
2023-04-18T08:55:35.474Z,10.25
2023-04-18T08:58:03.021Z,10.09
2023-04-18T09:00:29.426Z,10.05
2023-04-18T09:02:59.461Z,10.03
2023-04-18T09:05:27.422Z,10.07
2023-04-18T09:07:55.174Z,10.21
2023-04-18T09:10:29.240Z,10.23
2023-04-18T09:12:57.466Z,10.21
2023-04-18T09:15:27.204Z,10.11
2023-04-18T09:17:58.231Z,10.12
2023-04-18T09:20:41.997Z,10.08
2023-04-18T09:23:10.794Z,10.12
2023-04-18T09:25:46.512Z,10.18
2023-04-18T09:28:33.144Z,10.23
2023-04-18T09:31:09.593Z,10.23
2023-04-18T09:33:37.104Z,10.24
2023-04-18T09:36:21.734Z,10.10
2023-04-18T09:38:49.584Z,10.02
2023-04-18T09:41:19.925Z,9.96
2023-04-18T09:43:48.390Z,10.00
2023-04-18T09:46:17.477Z,10.05
2023-04-18T09:48:44.102Z,10.11
2023-04-18T09:51:14.656Z,10.10
2023-04-18T09:53:44.621Z,10.05
2023-04-18T09:56:25.922Z,10.05
2023-04-18T09:58:56.995Z,10.10
2023-04-18T10:01:28.301Z,10.19
2023-04-18T10:03:57.163Z,10.28
2023-04-18T10:06:27.239Z,10.41
2023-04-18T10:08:54.504Z,10.48
2023-04-18T10:11:21.918Z,10.54
2023-04-18T10:13:53.426Z,10.60
2023-04-18T10:16:20.668Z,10.52
2023-04-18T10:18:49.557Z,10.61
2023-04-18T10:21:15.945Z,10.73
2023-04-18T10:23:42.509Z,10.93
2023-04-18T10:26:11.999Z,10.89
2023-04-18T10:28:57.165Z,10.89
2023-04-18T10:31:28.628Z,10.96
2023-04-18T10:36:28.240Z,11.22
2023-04-18T10:39:19.856Z,11.54
2023-04-18T10:41:51.138Z,11.85
2023-04-18T10:44:24.721Z,12.04
2023-04-18T10:46:51.225Z,11.96
2023-04-18T10:49:28.870Z,11.62
2023-04-18T10:51:58.584Z,11.49
2023-04-18T10:54:38.949Z,11.30
2023-04-18T10:57:07.615Z,11.16
2023-04-18T10:59:38.408Z,11.14
2023-04-18T11:02:32.255Z,11.03
2023-04-18T11:05:00.150Z,11.06
2023-04-18T11:07:36.423Z,11.10
2023-04-18T11:10:04.564Z,11.21
2023-04-18T11:12:33.331Z,11.33
2023-04-18T11:15:03.407Z,11.34
2023-04-18T11:17:32.961Z,11.36
2023-04-18T11:20:11.404Z,11.40
2023-04-18T11:22:48.651Z,11.38
2023-04-18T11:25:16.395Z,11.47
2023-04-18T11:27:44.952Z,11.63
2023-04-18T11:30:13.152Z,11.61
2023-04-18T11:32:40.294Z,11.48
2023-04-18T11:35:11.967Z,11.47
2023-04-18T11:37:39.807Z,11.45
2023-04-18T11:40:09.361Z,11.39
2023-04-18T11:42:37.919Z,11.30
2023-04-18T11:45:09.549Z,11.34
2023-04-18T11:47:36.152Z,11.29
2023-04-18T11:50:04.983Z,11.38
2023-04-18T11:52:32.622Z,11.46
2023-04-18T11:55:18.444Z,11.47
2023-04-18T11:57:59.006Z,11.55
2023-04-18T12:00:38.330Z,11.64
2023-04-18T12:03:16.946Z,11.56
2023-04-18T12:05:43.541Z,11.58
2023-04-18T12:08:13.265Z,11.52
2023-04-18T12:10:53.487Z,11.58
2023-04-18T12:13:31.206Z,11.70
2023-04-18T12:15:58.117Z,11.87
2023-04-18T12:18:24.738Z,11.98
2023-04-18T12:20:53.949Z,11.92
2023-04-18T12:23:42.368Z,11.97
2023-04-18T12:26:13.550Z,11.95
2023-04-18T12:28:39.916Z,11.93
2023-04-18T12:31:07.302Z,11.96
2023-04-18T12:33:35.988Z,12.13
2023-04-18T12:36:02.755Z,12.37
2023-04-18T12:38:29.291Z,12.55
2023-04-18T12:40:55.800Z,12.77
2023-04-18T12:43:22.233Z,13.02
2023-04-18T12:45:49.904Z,13.03
2023-04-18T12:48:16.365Z,13.06
2023-04-18T12:50:42.740Z,12.99
2023-04-18T12:53:09.174Z,12.82
2023-04-18T12:55:36.192Z,12.65
2023-04-18T12:58:03.973Z,12.59
2023-04-18T13:00:32.518Z,12.57
2023-04-18T13:02:59.453Z,12.52
2023-04-18T13:05:31.733Z,12.61
2023-04-18T13:08:15.268Z,12.65
2023-04-18T13:10:43.286Z,12.75
2023-04-18T13:13:09.680Z,12.78
2023-04-18T13:15:36.185Z,12.83
2023-04-18T13:18:05.075Z,12.75
2023-04-18T13:20:32.489Z,12.71
2023-04-18T13:22:58.925Z,12.65
2023-04-18T13:25:26.488Z,12.76
2023-04-18T13:27:53.282Z,12.84
2023-04-18T13:30:20.300Z,12.93
2023-04-18T13:32:46.988Z,13.03
2023-04-18T13:35:13.632Z,13.04
2023-04-18T13:37:40.134Z,13.04
2023-04-18T13:40:07.211Z,12.99
2023-04-18T13:42:34.303Z,12.98
2023-04-18T13:45:00.680Z,13.03
2023-04-18T13:47:27.233Z,13.08
2023-04-18T13:49:53.761Z,13.02
2023-04-18T13:52:20.201Z,13.03
2023-04-18T13:54:46.947Z,13.05
2023-04-18T13:57:14.529Z,13.10
2023-04-18T13:59:41.153Z,13.18
2023-04-18T14:02:08.989Z,13.30
2023-04-18T14:04:36.182Z,13.53
2023-04-18T14:07:03.732Z,13.48
2023-04-18T14:09:30.212Z,13.49
2023-04-18T14:11:58.092Z,13.40
2023-04-18T14:14:24.580Z,13.35
2023-04-18T14:16:51.129Z,13.24
2023-04-18T14:19:17.908Z,13.12
2023-04-18T14:21:44.255Z,13.09
2023-04-18T14:24:10.681Z,13.09
2023-04-18T14:26:37.129Z,13.17
2023-04-18T14:29:05.020Z,13.11
2023-04-18T14:31:31.619Z,13.07
2023-04-18T14:33:58.133Z,13.23
2023-04-18T14:36:24.598Z,13.25
2023-04-18T14:38:51.009Z,13.33
2023-04-18T14:41:17.479Z,13.36
2023-04-18T14:43:43.904Z,13.47
2023-04-18T14:46:16.494Z,13.44
2023-04-18T14:48:48.717Z,13.41
2023-04-18T14:51:16.481Z,13.46
2023-04-18T14:53:43.394Z,13.52
2023-04-18T14:56:09.786Z,13.53
2023-04-18T14:58:36.222Z,13.55
2023-04-18T15:01:03.112Z,13.67
2023-04-18T15:03:29.747Z,13.77
2023-04-18T15:05:56.328Z,13.60
2023-04-18T15:08:22.683Z,13.68
2023-04-18T15:10:49.189Z,13.74
2023-04-18T15:13:15.845Z,13.76
2023-04-18T15:15:42.307Z,13.77
2023-04-18T15:18:08.932Z,13.73
2023-04-18T15:20:39.383Z,13.69
2023-04-18T15:23:05.808Z,13.68
2023-04-18T15:25:32.215Z,13.77
2023-04-18T15:27:58.677Z,13.78
2023-04-18T15:30:25.513Z,13.80
2023-04-18T15:32:52.298Z,13.82
2023-04-18T15:35:18.850Z,13.84
2023-04-18T15:37:45.360Z,13.85
2023-04-18T15:40:16.013Z,13.85
2023-04-18T15:42:43.582Z,13.92
2023-04-18T15:45:10.892Z,14.02
2023-04-18T15:47:38.422Z,14.11
2023-04-18T15:50:05.385Z,14.09
2023-04-18T15:52:31.859Z,14.14
2023-04-18T15:54:58.330Z,14.08
2023-04-18T15:57:24.784Z,14.05
2023-04-18T15:59:51.191Z,14.08
2023-04-18T16:02:17.730Z,14.17
2023-04-18T16:04:44.187Z,14.21
2023-04-18T16:07:12.394Z,14.22
2023-04-18T16:09:38.826Z,14.25
2023-04-18T16:12:07.060Z,14.29
2023-04-18T16:14:33.690Z,14.35
2023-04-18T16:17:00.409Z,14.32
2023-04-18T16:19:26.958Z,14.25
2023-04-18T16:21:53.337Z,14.10
2023-04-18T16:24:19.747Z,14.09
2023-04-18T16:26:46.310Z,14.13
2023-04-18T16:29:12.743Z,14.10
2023-04-18T16:31:39.200Z,14.03
2023-04-18T16:34:05.621Z,14.02
2023-04-18T16:36:34.954Z,14.03
2023-04-18T16:39:01.327Z,14.01
2023-04-18T16:41:27.841Z,14.05
2023-04-18T16:43:54.254Z,14.10
2023-04-18T16:46:20.740Z,14.10
2023-04-18T16:48:48.595Z,14.08
2023-04-18T16:51:15.786Z,14.02
2023-04-18T16:53:42.251Z,13.88
2023-04-18T16:56:08.974Z,13.84
2023-04-18T16:58:35.378Z,13.80
2023-04-18T17:01:02.301Z,13.80
2023-04-18T17:03:28.777Z,13.80
2023-04-18T17:05:55.806Z,13.82
2023-04-18T17:08:22.177Z,13.82
2023-04-18T17:10:51.687Z,13.85
2023-04-18T17:13:18.412Z,13.90
2023-04-18T17:15:44.854Z,13.97
2023-04-18T17:18:11.728Z,13.89
2023-04-18T17:20:38.189Z,13.81
2023-04-18T17:23:04.615Z,13.83
2023-04-18T17:25:31.841Z,13.91
2023-04-18T17:27:58.605Z,13.88
2023-04-18T17:30:25.138Z,13.87
2023-04-18T17:32:51.650Z,13.85
2023-04-18T17:35:18.270Z,13.82
2023-04-18T17:37:45.993Z,13.83
2023-04-18T17:40:13.045Z,13.83
2023-04-18T17:42:39.822Z,13.87
2023-04-18T17:45:08.312Z,13.87
2023-04-18T17:47:36.344Z,13.85
2023-04-18T17:50:03.953Z,13.85
2023-04-18T17:52:30.549Z,13.86
2023-04-18T17:54:57.258Z,13.80
2023-04-18T17:57:25.844Z,13.77
2023-04-18T17:59:52.570Z,13.70
2023-04-18T18:02:19.752Z,13.68
2023-04-18T18:04:46.977Z,13.65
2023-04-18T18:07:13.422Z,13.62
2023-04-18T18:09:41.488Z,13.56
2023-04-18T18:12:09.924Z,13.53
2023-04-18T18:14:36.549Z,13.45
2023-04-18T18:17:03.384Z,13.36
2023-04-18T18:19:29.832Z,13.39
2023-04-18T18:21:56.196Z,13.41
2023-04-18T18:24:22.760Z,13.47
2023-04-18T18:26:51.532Z,13.51
2023-04-18T18:29:19.215Z,13.55
2023-04-18T18:31:45.893Z,13.55
2023-04-18T18:34:12.461Z,13.46
2023-04-18T18:36:39.067Z,13.40
2023-04-18T18:39:05.591Z,13.32
2023-04-18T18:41:31.941Z,13.26
2023-04-18T18:43:58.352Z,13.17
2023-04-18T18:46:24.852Z,13.14
2023-04-18T18:48:51.824Z,13.09
2023-04-18T18:51:19.060Z,13.07
2023-04-18T18:53:46.564Z,13.07
2023-04-18T18:56:13.230Z,12.98
2023-04-18T18:58:40.321Z,12.93
2023-04-18T19:01:06.802Z,12.90
2023-04-18T19:03:34.589Z,12.85
2023-04-18T19:06:03.817Z,12.81
2023-04-18T19:08:30.872Z,12.78
2023-04-18T19:10:57.326Z,12.80
2023-04-18T19:13:24.210Z,12.73
2023-04-18T19:15:51.161Z,12.71
2023-04-18T19:18:19.829Z,12.71
2023-04-18T19:20:46.645Z,12.68
2023-04-18T19:23:13.044Z,12.61
2023-04-18T19:25:39.451Z,12.56
2023-04-18T19:28:05.865Z,12.52
2023-04-18T19:30:32.577Z,12.49
2023-04-18T19:32:59.085Z,12.39
2023-04-18T19:35:25.589Z,12.28
2023-04-18T19:37:52.072Z,12.20
2023-04-18T19:40:18.579Z,12.13
2023-04-18T19:42:45.946Z,12.12
2023-04-18T19:45:13.570Z,12.03
2023-04-18T19:47:40.007Z,12.02
2023-04-18T19:50:07.250Z,12.04
2023-04-18T19:52:33.644Z,12.03
2023-04-18T19:55:00.111Z,12.00
2023-04-18T19:57:27.688Z,12.02
2023-04-18T19:59:54.300Z,12.04
2023-04-18T20:02:20.745Z,11.92
2023-04-18T20:04:47.308Z,11.87
2023-04-18T20:07:13.760Z,11.83
2023-04-18T20:09:40.477Z,11.84
2023-04-18T20:12:06.871Z,11.87
2023-04-18T20:14:33.266Z,11.85
2023-04-18T20:16:59.712Z,11.79
2023-04-18T20:19:26.874Z,11.79
2023-04-18T20:21:53.277Z,11.79
2023-04-18T20:24:21.076Z,11.75
2023-04-18T20:26:47.785Z,11.73
2023-04-18T20:29:14.493Z,11.70
2023-04-18T20:31:42.324Z,11.63
2023-04-18T20:34:09.855Z,11.63
2023-04-18T20:36:41.296Z,11.57
2023-04-18T20:39:12.613Z,11.56
2023-04-18T20:41:49.209Z,11.53
2023-04-18T20:44:16.729Z,11.44
2023-04-18T20:46:43.176Z,11.43
2023-04-18T20:49:09.675Z,11.44
2023-04-18T20:51:37.012Z,11.45
2023-04-18T20:54:04.578Z,11.47
2023-04-18T20:56:31.874Z,11.49
2023-04-18T20:58:58.294Z,11.46
2023-04-18T21:01:24.862Z,11.38
2023-04-18T21:03:51.457Z,11.32
2023-04-18T21:06:19.106Z,11.25
2023-04-18T21:08:45.785Z,11.22
2023-04-18T21:11:12.175Z,11.18
2023-04-18T21:13:38.653Z,11.16
2023-04-18T21:16:07.611Z,11.11
2023-04-18T21:18:34.221Z,11.12
2023-04-18T21:21:00.886Z,11.16
2023-04-18T21:23:27.367Z,11.25
2023-04-18T21:25:53.894Z,11.28
2023-04-18T21:28:20.475Z,11.22
2023-04-18T21:30:46.943Z,11.21
2023-04-18T21:33:13.855Z,11.24
2023-04-18T21:35:40.330Z,11.28
2023-04-18T21:38:06.765Z,11.28
2023-04-18T21:40:33.320Z,11.30
2023-04-18T21:42:59.722Z,11.25
2023-04-18T21:45:26.259Z,11.27
2023-04-18T21:47:52.846Z,11.28
2023-04-18T21:50:19.448Z,11.25
2023-04-18T21:52:45.874Z,11.22
2023-04-18T21:55:12.400Z,11.14
2023-04-18T21:57:38.802Z,11.09
2023-04-18T22:00:08.467Z,11.07
2023-04-18T22:02:36.520Z,11.07
2023-04-18T22:05:03.138Z,11.02
2023-04-18T22:07:29.778Z,11.01
2023-04-18T22:09:58.399Z,10.97
2023-04-18T22:12:26.198Z,10.95
2023-04-18T22:14:52.779Z,11.02
2023-04-18T22:17:19.241Z,11.03
2023-04-18T22:19:47.169Z,10.90
2023-04-18T22:22:13.557Z,10.85
2023-04-18T22:24:39.933Z,10.82
2023-04-18T22:27:06.397Z,10.87
2023-04-18T22:29:32.928Z,10.91
2023-04-18T22:31:59.364Z,10.85
2023-04-18T22:34:25.810Z,10.83
2023-04-18T22:36:52.307Z,10.83
2023-04-18T22:39:18.666Z,10.79
2023-04-18T22:41:45.053Z,10.71
2023-04-18T22:44:11.495Z,10.63
2023-04-18T22:46:38.425Z,10.61
2023-04-18T22:49:05.515Z,10.58
2023-04-18T22:51:32.483Z,10.49
2023-04-18T22:53:58.951Z,10.43
2023-04-18T22:56:25.459Z,10.42
2023-04-18T22:58:51.902Z,10.48
2023-04-18T23:01:18.476Z,10.51
2023-04-18T23:03:45.452Z,10.56
2023-04-18T23:06:12.119Z,10.52
2023-04-18T23:08:38.583Z,10.56
2023-04-18T23:11:04.964Z,10.48
2023-04-18T23:13:31.412Z,10.45
2023-04-18T23:15:57.928Z,10.49
2023-04-18T23:18:24.375Z,10.50
2023-04-18T23:20:50.852Z,10.52
2023-04-18T23:23:17.250Z,10.45
2023-04-18T23:25:44.186Z,10.43
2023-04-18T23:28:10.651Z,10.39
2023-04-18T23:30:37.336Z,10.36
2023-04-18T23:33:03.845Z,10.37
2023-04-18T23:35:30.437Z,10.35
2023-04-18T23:37:57.276Z,10.35
2023-04-18T23:40:23.739Z,10.33
2023-04-18T23:42:50.116Z,10.28
2023-04-18T23:45:16.593Z,10.18
2023-04-18T23:47:43.003Z,10.18
2023-04-18T23:50:09.800Z,10.16
2023-04-18T23:52:38.062Z,10.21
2023-04-18T23:55:04.820Z,10.18
2023-04-18T23:57:31.236Z,10.21
2023-04-18T23:59:57.801Z,10.24
